Time;durP1;ratioP1;P1;durP2;ratioP2;P2;SDS_P1;SDS_P2;PMS_P1;PMS_P2;Temp;Humidity;BMP_temperature;BMP_pressure;BME280_temperature;BME280_humidity;BME280_pressure;Samples;Min_cycle;Max_cycle;Signal;HPM_P1;HPM_P2
2023/01/13 00:03:06;;;;;;;6.15;4.13;;;;;;;7.95;95.56;99199.25;10478447;28;20107;-78
2023/01/13 00:08:09;;;;;;;3.95;2.70;;;;;;;8.23;93.84;99188.75;10474932;28;20564;-78
2023/01/13 00:13:12;;;;;;;5.60;3.30;;;;;;;8.10;94.71;99194.38;10478691;28;20064;-79
2023/01/13 00:18:16;;;;;;;2.58;1.90;;;;;;;7.93;96.45;99178.03;10480534;28;20521;-79
2023/01/13 00:23:19;;;;;;;3.40;3.10;;;;;;;7.91;97.83;99189.84;10487508;28;20079;-78
2023/01/13 00:28:21;;;;;;;;;;;;;;;8.06;95.24;99167.06;10484868;28;20079;-77
2023/01/13 00:33:26;;;;;;;4.40;3.85;;;;;;;8.22;94.82;99161.16;10474774;28;20320;-77
2023/01/13 00:38:30;;;;;;;5.18;3.58;;;;;;;8.39;94.00;99171.19;10479992;28;20543;-77
2023/01/13 00:43:35;;;;;;;2.70;2.33;;;;;;;7.71;97.55;99171.06;10476370;28;20068;-79
2023/01/13 00:48:39;;;;;;;2.80;2.33;;;;;;;7.87;97.87;99167.00;10482026;28;20048;-78
2023/01/13 00:53:45;;;;;;;2.42;2.03;;;;;;;7.77;96.65;99155.47;10502779;28;20108;-78
2023/01/13 00:58:48;;;;;;;1.73;1.42;;;;;;;7.85;94.69;99147.59;10486500;28;20044;-78
2023/01/13 01:03:54;;;;;;;1.00;0.85;;;;;;;7.46;95.11;99166.16;10478628;28;20120;-77
2023/01/13 01:08:57;;;;;;;1.10;0.60;;;;;;;7.68;92.38;99166.00;10473184;28;20044;-78
2023/01/13 01:14:02;;;;;;;1.67;0.50;;;;;;;7.51;90.71;99185.31;10480588;28;20044;-75
2023/01/13 01:19:07;;;;;;;1.02;0.35;;;;;;;7.67;89.08;99184.81;10473876;28;20065;-78
2023/01/13 01:24:10;;;;;;;3.28;0.55;;;;;;;7.58;88.11;99181.13;10470414;28;20434;-78
2023/01/13 01:29:14;;;;;;;1.08;0.77;;;;;;;7.56;87.67;99169.72;10473791;28;20037;-78
2023/01/13 01:34:18;;;;;;;2.50;0.82;;;;;;;7.48;87.37;99182.91;10478640;28;20151;-77
2023/01/13 01:39:21;;;;;;;3.35;1.20;;;;;;;7.55;87.29;99167.22;10474560;28;20083;-78
2023/01/13 01:45:03;;;;;;;3.22;0.98;;;;;;;7.44;87.57;99171.66;10477284;28;20135;-75
2023/01/13 01:50:10;;;;;;;3.20;0.97;;;;;;;7.30;86.86;99200.56;10468560;28;20094;-78
2023/01/13 01:55:16;;;;;;;4.13;1.30;;;;;;;7.31;86.31;99192.41;10480589;28;20127;-78
2023/01/13 02:00:19;;;;;;;5.18;0.93;;;;;;;7.13;84.45;99178.81;10479014;28;20048;-78
2023/01/13 02:05:23;;;;;;;4.80;1.00;;;;;;;7.32;82.00;99202.09;10478002;28;20116;-80
2023/01/13 02:10:28;;;;;;;4.00;0.90;;;;;;;7.12;81.91;99185.13;10478396;28;20115;-79
2023/01/13 02:15:40;;;;;;;7.60;1.63;;;;;;;7.03;81.44;99192.09;10491654;28;20045;-79
2023/01/13 02:20:59;;;;;;;6.30;1.60;;;;;;;7.58;80.71;99175.78;10481821;28;20055;-79
2023/01/13 02:26:28;;;;;;;4.68;0.80;;;;;;;7.23;81.36;99200.22;10462148;28;20079;-78
2023/01/13 02:31:44;;;;;;;6.03;1.35;;;;;;;7.33;81.42;99213.66;10471098;28;20144;-78
2023/01/13 02:36:51;;;;;;;9.27;1.80;;;;;;;7.31;82.06;99212.91;10486025;28;20076;-78
2023/01/13 02:47:24;;;;;;;10.95;1.58;;;;;;;7.17;81.83;99209.59;10480681;28;20051;-78
2023/01/13 02:52:33;;;;;;;4.75;1.52;;;;;;;7.56;80.93;99217.81;10480427;28;20041;-78
2023/01/13 02:57:38;;;;;;;7.45;1.90;;;;;;;7.36;80.96;99216.06;10474916;28;20467;-77
2023/01/13 03:02:42;;;;;;;13.82;1.60;;;;;;;7.32;79.76;99209.25;10477352;28;20747;-77
2023/01/13 03:08:00;;;;;;;11.05;1.42;;;;;;;7.27;80.30;99205.19;10485929;28;20045;-78
2023/01/13 03:13:15;;;;;;;10.95;2.03;;;;;;;7.52;79.60;99211.06;10478762;28;20049;-77
2023/01/13 03:18:36;;;;;;;8.93;2.30;;;;;;;7.33;80.37;99216.31;10477577;28;20073;-78
2023/01/13 03:23:48;;;;;;;9.27;1.60;;;;;;;7.33;80.32;99213.66;10480646;28;20055;-77
2023/01/13 03:28:56;;;;;;;8.75;1.80;;;;;;;7.26;78.75;99192.78;10483117;28;20139;-78
2023/01/13 03:34:06;;;;;;;15.95;1.73;;;;;;;7.24;77.09;99197.44;10452800;28;20064;-78
2023/01/13 03:39:15;;;;;;;10.32;2.30;;;;;;;7.25;77.27;99206.28;10482307;28;20049;-77
2023/01/13 03:44:22;;;;;;;17.73;2.72;;;;;;;7.33;76.24;99187.78;10477587;28;20060;-78
2023/01/13 03:49:34;;;;;;;11.52;2.38;;;;;;;7.19;76.26;99202.31;10480517;28;20049;-79
2023/01/13 03:54:44;;;;;;;9.90;2.28;;;;;;;7.33;74.59;99192.28;10476782;28;20047;-78
2023/01/13 03:59:52;;;;;;;11.73;2.05;;;;;;;7.54;73.81;99193.06;10472599;28;20456;-78
2023/01/13 04:04:59;;;;;;;18.15;3.10;;;;;;;7.71;73.31;99216.50;10470770;28;20123;-78
2023/01/13 04:10:06;;;;;;;14.88;3.00;;;;;;;7.53;74.30;99231.47;10472321;28;20110;-78
2023/01/13 04:15:10;;;;;;;7.00;2.28;;;;;;;7.54;73.12;99209.09;10468790;28;20128;-78
2023/01/13 04:20:14;;;;;;;16.30;2.70;;;;;;;7.56;73.60;99211.66;10481882;28;20048;-78
2023/01/13 04:25:17;;;;;;;29.60;5.60;;;;;;;7.40;74.02;99214.78;10455238;28;20482;-78
2023/01/13 04:30:19;;;;;;;17.65;3.03;;;;;;;7.54;73.92;99214.44;10488103;28;20127;-78
2023/01/13 04:35:24;;;;;;;18.00;2.67;;;;;;;7.59;74.00;99227.41;10498061;22;20123;-79
2023/01/13 04:40:27;;;;;;;19.70;2.67;;;;;;;7.13;74.85;99210.88;10456710;28;20041;-79
2023/01/13 04:45:30;;;;;;;15.02;2.25;;;;;;;7.17;74.82;99201.59;10453328;28;20040;-79
2023/01/13 04:50:34;;;;;;;10.95;2.25;;;;;;;7.04;73.37;99214.28;10442599;28;20051;-79
2023/01/13 04:55:37;;;;;;;7.15;1.27;;;;;;;6.87;73.12;99204.19;10439770;28;20044;-78
2023/01/13 05:00:40;;;;;;;14.82;3.13;;;;;;;6.90;72.59;99188.78;10433975;28;20095;-78
2023/01/13 05:05:44;;;;;;;18.08;2.78;;;;;;;6.92;71.46;99194.84;10442546;28;20453;-78
2023/01/13 05:10:47;;;;;;;16.30;2.10;;;;;;;7.23;70.53;99193.03;10456388;28;20045;-78
2023/01/13 05:26:40;;;;;;;11.82;1.77;;;;;;;6.84;71.73;99166.09;10442605;28;20781;-79
2023/01/13 05:31:43;;;;;;;14.90;2.08;;;;;;;6.90;71.30;99169.25;10439175;28;20033;-79
2023/01/13 05:36:47;;;;;;;12.40;1.90;;;;;;;6.78;70.59;99182.63;10441951;28;20049;-79
2023/01/13 05:47:10;;;;;;;15.35;2.72;;;;;;;6.92;70.21;99172.63;10440190;28;20076;-79
2023/01/13 05:52:14;;;;;;;14.98;1.92;;;;;;;6.81;70.77;99185.03;10436498;28;20128;-79
2023/01/13 05:57:17;;;;;;;6.68;1.33;;;;;;;6.67;71.04;99198.69;10437182;28;20040;-78
2023/01/13 06:02:20;;;;;;;9.45;1.55;;;;;;;6.66;71.43;99151.63;10442864;28;20045;-78
2023/01/13 06:07:24;;;;;;;14.60;2.53;;;;;;;6.35;72.17;99158.69;10442644;28;20049;-79
2023/01/13 06:12:27;;;;;;;12.07;2.50;;;;;;;6.48;71.61;99153.19;10477979;28;20098;-78
2023/01/13 06:17:30;;;;;;;6.85;1.70;;;;;;;6.42;71.09;99153.66;10459487;28;20427;-79
2023/01/13 06:22:38;;;;;;;11.82;1.73;;;;;;;6.70;70.59;99152.22;10446096;28;20082;-79
2023/01/13 06:27:41;;;;;;;15.50;2.13;;;;;;;6.67;70.78;99147.16;10448807;28;20049;-80
2023/01/13 06:32:47;;;;;;;10.85;1.65;;;;;;;6.42;71.09;99153.66;10446685;28;20045;-79
2023/01/13 06:37:55;;;;;;;8.82;1.40;;;;;;;6.39;70.71;99181.47;10450123;28;20509;-78
2023/01/13 06:48:27;;;;;;;8.77;1.08;;;;;;;6.43;71.29;99148.22;10426188;28;20061;-76
2023/01/13 06:53:32;;;;;;;8.70;1.38;;;;;;;6.32;71.32;99166.94;10442520;28;20060;-79
2023/01/13 06:58:34;;;;;;;9.43;2.05;;;;;;;6.55;70.93;99181.84;10446631;28;20107;-75
2023/01/13 07:03:37;;;;;;;13.93;2.03;;;;;;;6.33;71.52;99196.13;10446938;28;20069;-78
2023/01/13 07:08:41;;;;;;;6.47;1.98;;;;;;;6.28;71.32;99193.03;10448006;28;20494;-79
2023/01/13 07:19:05;;;;;;;9.07;1.95;;;;;;;6.33;72.42;99201.47;10436824;28;20072;-77
2023/01/13 07:24:09;;;;;;;12.07;1.75;;;;;;;6.51;72.54;99192.94;10440246;28;20044;-78
2023/01/13 07:29:12;;;;;;;7.38;1.48;;;;;;;6.71;72.31;99210.78;10434431;28;20049;-79
2023/01/13 07:34:15;;;;;;;16.15;2.80;;;;;;;6.75;72.50;99214.91;10445545;28;20052;-79
2023/01/13 07:39:19;;;;;;;5.53;1.45;;;;;;;6.46;72.41;99213.81;10444971;28;20391;-77
2023/01/13 07:44:23;;;;;;;8.48;2.15;;;;;;;6.50;72.53;99226.78;10449478;28;20045;-79
2023/01/13 07:49:25;;;;;;;18.58;1.67;;;;;;;6.58;72.53;99220.78;10432108;28;20053;-78
2023/01/13 07:54:30;;;;;;;11.32;2.17;;;;;;;6.34;72.65;99229.00;10436104;28;20064;-77
2023/01/13 07:59:42;;;;;;;7.30;1.30;;;;;;;6.58;71.51;99224.31;10459404;28;20041;-75
2023/01/13 08:04:45;;;;;;;9.80;1.52;;;;;;;6.51;71.54;99232.94;10444424;28;20053;-77
2023/01/13 08:09:49;;;;;;;10.73;1.98;;;;;;;6.69;70.27;99238.56;10436502;28;20064;-77
2023/01/13 08:14:52;;;;;;;5.97;1.58;;;;;;;6.47;70.39;99244.84;10429906;28;20045;-76
2023/01/13 08:19:55;;;;;;;5.10;2.10;;;;;;;6.92;69.33;99239.38;10460542;28;20039;-77
2023/01/13 08:25:00;;;;;;;6.55;1.58;;;;;;;6.83;68.62;99248.97;10455020;28;20116;-77
2023/01/13 08:30:03;;;;;;;4.68;1.17;;;;;;;6.54;68.54;99240.69;10454604;28;20047;-79
2023/01/13 08:35:07;;;;;;;9.00;2.33;;;;;;;6.50;68.26;99236.56;10444400;28;20441;-79
2023/01/13 08:40:13;;;;;;;8.02;1.90;;;;;;;6.67;67.14;99227.22;10411153;28;20065;-79
2023/01/13 08:45:16;;;;;;;13.00;3.42;;;;;;;6.61;67.55;99245.41;10405456;28;20067;-79
2023/01/13 08:50:44;;;;;;;9.52;1.52;;;;;;;6.90;66.27;99238.66;11763884;22;20056;-77
2023/01/13 08:55:48;;;;;;;7.70;1.73;;;;;;;6.88;66.11;99254.78;10445549;28;20037;-76
2023/01/13 09:00:51;;;;;;;8.85;2.03;;;;;;;6.59;67.13;99249.19;10424782;28;20053;-77
2023/01/13 09:05:54;;;;;;;4.13;1.23;;;;;;;6.53;67.11;99257.69;10395976;28;20057;-77
2023/01/13 09:10:58;;;;;;;10.27;1.83;;;;;;;6.85;66.39;99247.00;10388647;28;20049;-78
2023/01/13 09:16:01;;;;;;;7.25;2.15;;;;;;;7.04;65.66;99255.19;10395237;28;20042;-77
2023/01/13 09:21:04;;;;;;;9.07;1.73;;;;;;;6.95;66.75;99263.13;10389084;28;20064;-77
2023/01/13 09:26:09;;;;;;;12.90;2.30;;;;;;;6.90;66.83;99268.00;10390696;28;20464;-77
2023/01/13 09:31:13;;;;;;;7.68;2.45;;;;;;;6.76;66.34;99291.31;10397818;28;20500;-77
2023/01/13 09:36:16;;;;;;;16.95;2.78;;;;;;;7.06;66.35;99274.59;10415623;28;20037;-76
2023/01/13 09:46:51;;;;;;;11.20;1.67;;;;;;;7.00;66.50;99300.97;10403974;28;20096;-78
2023/01/13 09:51:58;;;;;;;13.02;3.28;;;;;;;6.89;66.29;99293.88;10399645;28;20452;-78
2023/01/13 09:57:04;;;;;;;10.77;2.25;;;;;;;6.67;66.08;99328.59;10416937;28;20092;-76
2023/01/13 10:02:30;;;;;;;9.05;1.52;;;;;;;6.70;66.05;99310.50;10411753;28;20053;-78
2023/01/13 10:07:38;;;;;;;3.00;0.98;;;;;;;6.78;65.12;99309.88;10409485;28;20048;-77
2023/01/13 10:18:11;;;;;;;5.93;1.27;;;;;;;6.44;66.95;99293.94;10400991;28;20076;-77
2023/01/13 10:23:34;;;;;;;13.20;2.72;;;;;;;6.55;66.94;99309.09;10411154;28;20073;-77
2023/01/13 10:28:38;;;;;;;13.32;2.15;;;;;;;6.97;66.14;99296.75;10411263;28;20538;-76
2023/01/13 10:33:40;;;;;;;7.95;1.67;;;;;;;6.90;64.90;99294.72;10406935;28;20196;-78
2023/01/13 10:38:45;;;;;;;17.73;3.08;;;;;;;7.01;64.50;99294.66;10405118;28;20092;-77
2023/01/13 10:44:00;;;;;;;9.30;1.85;;;;;;;7.33;63.52;99296.47;10403359;28;20048;-77
2023/01/13 10:49:24;;;;;;;10.40;1.65;;;;;;;7.22;63.54;99278.66;10410903;28;20372;-77
2023/01/13 10:54:27;;;;;;;6.40;1.98;;;;;;;7.15;63.58;99299.69;10420211;28;20068;-76
2023/01/13 10:59:31;;;;;;;8.75;1.48;;;;;;;7.04;64.07;99307.75;10414205;28;20050;-77
2023/01/13 11:04:36;;;;;;;11.45;1.80;;;;;;;7.04;64.47;99303.25;10410509;28;20034;-76
2023/01/13 11:09:39;;;;;;;14.00;3.30;;;;;;;7.37;63.37;99295.19;10418204;28;20034;-78
2023/01/13 11:14:47;;;;;;;8.73;2.03;;;;;;;7.88;62.18;99313.94;10413370;28;20038;-77
2023/01/13 11:19:57;;;;;;;11.43;1.60;;;;;;;8.95;57.95;99294.69;10412322;28;20559;-77
2023/01/13 11:25:01;;;;;;;11.93;2.05;;;;;;;8.56;61.00;99292.81;10406721;28;20040;-76
2023/01/13 11:30:16;;;;;;;23.65;2.83;;;;;;;8.92;59.23;99294.97;10414416;28;20045;-77
2023/01/13 11:35:21;;;;;;;12.13;2.35;;;;;;;7.83;61.31;99299.28;10402024;28;20030;-76
2023/01/13 11:40:31;;;;;;;15.32;2.83;;;;;;;8.05;62.25;99306.28;10404168;28;20569;-77
2023/01/13 11:45:41;;;;;;;16.60;2.75;;;;;;;7.78;63.62;99280.94;10405255;28;20045;-77
2023/01/13 11:50:52;;;;;;;13.68;2.58;;;;;;;8.03;61.77;99297.53;10407024;28;20069;-78
2023/01/13 11:56:08;;;;;;;16.25;2.80;;;;;;;7.83;62.70;99304.63;10403690;28;20106;-75
2023/01/13 12:01:35;;;;;;;23.08;2.97;;;;;;;7.66;63.56;99295.41;10413943;28;20408;-76
2023/01/13 12:06:40;;;;;;;15.38;2.92;;;;;;;7.57;64.12;99307.72;10408329;28;20041;-76
2023/01/13 12:17:29;;;;;;;14.20;3.05;;;;;;;7.20;66.87;99318.00;10401975;28;20404;-77
2023/01/13 12:22:33;;;;;;;4.40;1.83;;;;;;;6.75;69.82;99327.00;10412950;28;20550;-77
2023/01/13 12:27:43;;;;;;;9.00;1.75;;;;;;;6.73;71.21;99325.44;10407476;28;20091;-77
2023/01/13 12:32:53;;;;;;;15.73;3.45;;;;;;;6.57;70.79;99318.66;10404955;28;20411;-77
2023/01/13 12:38:04;;;;;;;8.80;2.28;;;;;;;6.79;69.02;99308.91;10406706;28;20049;-77
2023/01/13 12:49:07;;;;;;;10.27;1.73;;;;;;;6.91;68.71;99305.28;10411027;28;20705;-77
2023/01/13 12:54:24;;;;;;;;;;;;;;;6.78;70.34;99316.06;10403805;28;20044;-77
2023/01/13 12:59:36;;;;;;;13.00;3.63;;;;;;;6.57;72.18;99331.16;10402454;28;19921;-77
2023/01/13 13:04:45;;;;;;;16.00;2.07;;;;;;;6.01;74.77;99395.22;10428926;28;20458;-77
2023/01/13 13:09:55;;;;;;;4.75;1.70;;;;;;;6.07;75.37;99365.41;10414291;28;20053;-75
2023/01/13 13:15:18;;;;;;;9.77;1.17;;;;;;;6.32;74.10;99361.63;10368374;28;20107;-76
2023/01/13 13:20:56;;;;;;;10.98;1.83;;;;;;;6.63;73.53;99362.69;10352713;28;20415;-76
2023/01/13 13:26:03;;;;;;;15.40;2.95;;;;;;;6.70;72.29;99363.88;10358257;28;20120;-76
2023/01/13 13:31:25;;;;;;;8.18;1.73;;;;;;;6.66;72.44;99381.09;10356352;28;20120;-76
2023/01/13 13:37:05;;;;;;;14.20;2.10;;;;;;;6.59;71.55;99355.91;10365752;28;20172;-76
2023/01/13 13:47:37;;;;;;;10.95;2.38;;;;;;;7.15;69.91;99385.16;10367175;28;20103;-77
2023/01/13 13:52:50;;;;;;;10.57;2.72;;;;;;;6.53;70.13;99394.59;10364553;28;20054;-75
2023/01/13 13:57:54;;;;;;;13.43;2.88;;;;;;;6.97;69.53;99402.69;10368828;28;20664;-77
2023/01/13 14:03:00;;;;;;;9.10;1.30;;;;;;;6.38;72.14;99439.34;10368356;28;20056;-76
2023/01/13 14:08:14;;;;;;;15.90;1.95;;;;;;;6.74;71.27;99444.53;10362962;28;20053;-77
2023/01/13 14:13:20;;;;;;;6.97;2.35;;;;;;;6.48;70.87;99441.28;10353579;28;20045;-77
2023/01/13 14:18:24;;;;;;;8.98;2.03;;;;;;;6.79;70.26;99464.56;10331828;28;20050;-77
2023/01/13 14:23:31;;;;;;;9.70;1.58;;;;;;;6.85;70.05;99487.25;10358990;28;20041;-77
2023/01/13 14:28:36;;;;;;;9.80;1.77;;;;;;;7.16;69.27;99472.31;10371585;28;20068;-77
2023/01/13 14:33:42;;;;;;;4.97;1.33;;;;;;;6.80;69.55;99476.09;10376393;28;20682;-77
2023/01/13 14:38:49;;;;;;;2.17;1.15;;;;;;;7.12;68.39;99478.03;10375659;28;20045;-77
2023/01/13 14:43:55;;;;;;;7.60;2.05;;;;;;;7.14;68.61;99495.63;10366199;28;20064;-77
2023/01/13 14:49:00;;;;;;;12.27;2.90;;;;;;;6.93;69.05;99492.00;10360563;28;20062;-75
2023/01/13 14:54:45;;;;;;;3.08;1.10;;;;;;;6.58;70.47;99508.94;10359562;28;20096;-77
2023/01/13 14:59:50;;;;;;;4.03;0.95;;;;;;;6.78;70.45;99526.94;10360469;28;20171;-75
2023/01/13 15:04:55;;;;;;;4.72;1.90;;;;;;;6.43;71.82;99536.84;10376101;28;20046;-76
2023/01/13 15:10:01;;;;;;;7.90;1.65;;;;;;;6.56;71.85;99535.78;10370779;28;20076;-76
2023/01/13 15:15:07;;;;;;;8.38;1.88;;;;;;;6.59;71.98;99546.19;10374184;28;20123;-76
2023/01/13 15:20:14;;;;;;;8.90;1.67;;;;;;;6.14;73.40;99567.44;10370323;28;20063;-76
2023/01/13 15:25:19;;;;;;;4.30;1.35;;;;;;;5.93;72.76;99548.56;10375063;28;20057;-76
2023/01/13 15:30:25;;;;;;;7.13;1.80;;;;;;;5.96;72.58;99563.50;10357799;28;20161;-77
2023/01/13 15:35:29;;;;;;;8.70;1.98;;;;;;;5.94;73.16;99573.41;10356216;28;20052;-76
2023/01/13 15:40:33;;;;;;;9.48;2.13;;;;;;;5.80;73.16;99578.91;10357981;28;20401;-76
2023/01/13 15:50:57;;;;;;;9.75;1.33;;;;;;;6.01;72.75;99619.13;10356663;28;20565;-77
2023/01/13 15:56:08;;;;;;;7.90;1.02;;;;;;;6.14;72.67;99619.91;10359540;28;20083;-77
2023/01/13 16:01:12;;;;;;;10.10;2.45;;;;;;;5.98;73.61;99630.00;10363772;28;20050;-77
2023/01/13 16:06:18;;;;;;;5.85;1.25;;;;;;;6.15;73.51;99624.28;10361209;28;20049;-77
2023/01/13 16:11:22;;;;;;;6.13;1.40;;;;;;;5.92;74.45;99644.63;10321332;28;20049;-78
2023/01/13 16:16:27;;;;;;;4.07;1.63;;;;;;;6.07;75.03;99653.34;10322385;28;20050;-77
2023/01/13 16:21:30;;;;;;;12.82;2.70;;;;;;;5.89;76.05;99664.38;10322252;28;20058;-76
2023/01/13 16:26:36;;;;;;;11.43;2.33;;;;;;;5.73;78.82;99656.66;10320739;28;20155;-77
2023/01/13 16:31:39;;;;;;;4.40;1.90;;;;;;;5.43;80.09;99683.69;10320329;28;20643;-77
2023/01/13 16:36:42;;;;;;;10.95;2.05;;;;;;;5.60;78.03;99670.97;10319152;28;20052;-77
2023/01/13 16:41:47;;;;;;;9.82;2.25;;;;;;;5.74;77.61;99668.16;10319572;28;20099;-77
2023/01/13 16:46:49;;;;;;;11.27;2.50;;;;;;;5.89;76.49;99674.19;10323024;28;20067;-76
2023/01/13 16:51:52;;;;;;;12.43;2.38;;;;;;;5.81;77.61;99687.22;10318365;28;20057;-76
2023/01/13 16:56:56;;;;;;;9.18;2.08;;;;;;;5.83;77.23;99695.97;10317873;28;20050;-76
2023/01/13 17:02:00;;;;;;;11.75;2.13;;;;;;;5.67;76.35;99718.38;10321091;28;20054;-77
2023/01/13 17:07:05;;;;;;;11.25;2.80;;;;;;;6.00;75.02;99700.91;10324308;28;20053;-76
2023/01/13 17:12:10;;;;;;;13.02;3.10;;;;;;;6.42;74.14;99717.41;10363709;28;20265;-77
2023/01/13 17:17:21;;;;;;;9.43;2.25;;;;;;;6.10;74.59;99749.09;10347059;28;20102;-75
2023/01/13 17:22:24;;;;;;;8.77;1.85;;;;;;;5.75;75.22;99714.31;10372048;28;20056;-77
2023/01/13 17:27:28;;;;;;;8.40;1.42;;;;;;;6.01;74.14;99733.78;10397514;28;20064;-76
2023/01/13 17:32:31;;;;;;;7.22;1.42;;;;;;;6.34;72.42;99731.31;10387683;28;20057;-76
2023/01/13 17:37:34;;;;;;;7.97;1.60;;;;;;;5.89;73.77;99736.34;10387153;28;20656;-77
2023/01/13 17:42:38;;;;;;;9.07;3.03;;;;;;;6.02;73.21;99762.13;10373149;28;20132;-79
2023/01/13 17:47:41;;;;;;;6.22;2.10;;;;;;;5.54;75.93;99759.31;10378627;28;20056;-76
2023/01/13 17:52:44;;;;;;;5.32;1.33;;;;;;;5.62;75.96;99760.50;10373994;28;21264;-76
2023/01/13 17:57:48;;;;;;;7.28;1.95;;;;;;;5.58;77.14;99768.81;10316116;28;82603;-77
2023/01/13 18:02:51;;;;;;;12.93;3.92;;;;;;;5.43;78.20;99773.38;10299282;28;20173;-77
2023/01/13 18:07:53;;;;;;;10.70;4.25;;;;;;;5.81;77.23;99768.03;10307002;28;20610;-78
2023/01/13 18:12:57;;;;;;;11.07;3.67;;;;;;;5.72;77.98;99774.00;10307149;28;20054;-78
2023/01/13 18:18:00;;;;;;;13.07;4.45;;;;;;;5.75;78.70;99787.13;10324206;28;20117;-77
2023/01/13 18:28:25;;;;;;;10.23;3.92;;;;;;;6.01;77.90;99803.09;10328263;28;20058;-79
2023/01/13 18:33:27;;;;;;;11.88;3.00;;;;;;;5.81;78.37;99808.00;10325181;28;20153;-78
2023/01/13 18:38:30;;;;;;;10.52;2.78;;;;;;;6.27;76.95;99819.88;10320562;28;20049;-77
2023/01/13 18:43:34;;;;;;;10.45;2.80;;;;;;;6.06;76.84;99830.25;10328004;28;20046;-78
2023/01/13 18:48:37;;;;;;;15.35;4.57;;;;;;;6.23;76.28;99821.09;10341634;28;20528;-77
2023/01/13 18:53:40;;;;;;;11.45;3.22;;;;;;;5.92;77.38;99823.25;10356226;28;20056;-78
2023/01/13 18:58:50;;;;;;;13.68;3.17;;;;;;;5.99;76.44;99859.19;10342606;28;20049;-77
2023/01/13 19:03:57;;;;;;;11.70;2.63;;;;;;;6.01;76.23;99840.44;10343283;28;20061;-77
2023/01/13 19:09:07;;;;;;;12.13;2.13;;;;;;;6.08;75.44;99836.34;10341285;28;20081;-78
2023/01/13 19:14:11;;;;;;;13.07;3.33;;;;;;;6.18;75.63;99858.75;10340674;28;20405;-78
2023/01/13 19:19:14;;;;;;;8.52;2.13;;;;;;;6.32;74.24;99877.28;10343724;28;20041;-77
2023/01/13 19:24:17;;;;;;;17.27;3.28;;;;;;;6.57;73.87;99888.84;10349504;28;21185;-78
2023/01/13 19:29:21;;;;;;;12.68;2.65;;;;;;;6.20;74.00;99896.84;10381654;28;20057;-77
2023/01/13 19:34:25;;;;;;;10.45;3.10;;;;;;;6.50;73.01;99895.59;10375872;28;20052;-77
2023/01/13 19:39:28;;;;;;;10.50;2.08;;;;;;;6.25;73.59;99913.34;10373451;28;20645;-78
2023/01/13 19:49:52;;;;;;;15.37;2.87;;;;;;;6.12;73.70;99958.69;10389438;28;20072;-77
2023/01/13 19:54:55;;;;;;;4.82;1.27;;;;;;;6.20;73.72;99942.16;10371611;28;20058;-78
2023/01/13 19:59:59;;;;;;;13.18;3.03;;;;;;;6.43;73.34;99927.19;10366946;28;21167;-78
2023/01/13 20:05:05;;;;;;;12.23;2.22;;;;;;;6.39;72.98;99965.75;10364317;28;20467;-77
2023/01/13 20:10:09;;;;;;;12.52;2.78;;;;;;;6.29;73.54;99964.69;10364690;28;20049;-75
2023/01/13 20:15:13;;;;;;;13.40;2.33;;;;;;;6.25;73.97;99966.69;10369599;28;20061;-78
2023/01/13 20:20:19;;;;;;;18.25;3.13;;;;;;;6.02;74.76;99964.78;10366568;28;20056;-78
2023/01/13 20:25:22;;;;;;;8.80;1.77;;;;;;;6.04;75.13;99969.03;10362975;28;20125;-78
2023/01/13 20:30:26;;;;;;;12.77;3.03;;;;;;;6.04;75.51;99970.84;10361680;28;20069;-77
2023/01/13 20:35:29;;;;;;;8.52;1.98;;;;;;;5.97;75.92;99982.88;10370300;28;21320;-78
2023/01/13 20:40:31;;;;;;;12.98;2.50;;;;;;;6.07;75.38;100008.81;10362761;28;20053;-78
2023/01/13 20:45:36;;;;;;;8.80;2.28;;;;;;;6.11;74.79;100004.13;10368271;28;20052;-78
2023/01/13 20:50:38;;;;;;;9.70;2.10;;;;;;;6.29;73.77;100002.88;10374363;28;20046;-78
2023/01/13 20:55:41;;;;;;;13.95;2.05;;;;;;;6.12;74.42;100027.19;10362492;28;20048;-78
2023/01/13 21:00:45;;;;;;;23.67;2.65;;;;;;;5.58;78.39;100036.09;10340601;28;20092;-77
2023/01/13 21:05:48;;;;;;;10.98;2.63;;;;;;;5.82;78.00;100030.13;10350764;28;20101;-78
2023/01/13 21:10:51;;;;;;;13.43;2.10;;;;;;;5.85;77.39;100027.25;10360953;28;20064;-77
2023/01/13 21:15:55;;;;;;;7.63;1.45;;;;;;;5.79;77.00;100017.84;10339723;28;20061;-78
2023/01/13 21:21:10;;;;;;;9.93;1.70;;;;;;;6.03;76.31;100020.66;10339931;28;20060;-78
2023/01/13 21:26:14;;;;;;;6.97;1.90;;;;;;;5.75;76.42;100036.78;10364417;28;20041;-78
2023/01/13 21:31:18;;;;;;;6.38;0.90;;;;;;;5.57;76.90;100058.38;10361258;28;20405;-78
2023/01/13 21:36:21;;;;;;;7.82;1.40;;;;;;;5.59;76.26;100058.25;10355715;28;20049;-78
2023/01/13 21:52:04;;;;;;;4.45;1.50;;;;;;;5.49;76.75;100076.69;10371231;28;20114;-77
2023/01/13 21:57:07;;;;;;;4.88;1.08;;;;;;;5.45;76.54;100089.31;10388911;28;20420;-77
2023/01/13 22:07:28;;;;;;;5.28;1.52;;;;;;;5.78;74.95;100096.06;10380281;28;20079;-77
2023/01/13 22:12:31;;;;;;;5.18;1.23;;;;;;;5.69;75.55;100100.19;10374670;28;20191;-76
2023/01/13 22:17:35;;;;;;;5.53;1.33;;;;;;;5.87;75.12;100103.50;10370959;28;20037;-77
2023/01/13 22:22:38;;;;;;;11.52;1.60;;;;;;;5.69;75.79;100108.19;10367424;28;20063;-77
2023/01/13 22:27:43;;;;;;;5.25;1.77;;;;;;;6.10;74.07;100101.09;10367156;28;20045;-77
2023/01/13 22:32:47;;;;;;;11.68;1.73;;;;;;;5.76;74.96;100105.13;10357612;28;20085;-77
2023/01/13 22:37:50;;;;;;;2.30;0.80;;;;;;;5.72;73.89;100121.31;10354023;28;20049;-78
2023/01/13 22:42:53;;;;;;;7.63;1.35;;;;;;;6.24;72.60;100110.84;10468579;22;20135;-78
2023/01/13 22:47:58;;;;;;;5.03;1.13;;;;;;;5.89;72.74;100122.03;10484042;28;20102;-78
2023/01/13 22:53:00;;;;;;;6.88;1.25;;;;;;;5.64;73.86;100125.44;10485576;28;20101;-77
2023/01/13 22:58:03;;;;;;;5.00;1.23;;;;;;;6.12;72.94;100147.19;10479982;28;20075;-77
2023/01/13 23:03:08;;;;;;;4.05;1.38;;;;;;;5.82;73.00;100134.06;10472063;28;20415;-77
2023/01/13 23:08:12;;;;;;;2.78;1.75;;;;;;;5.58;73.71;100149.81;10476445;28;20120;-77
2023/01/13 23:13:15;;;;;;;5.18;1.60;;;;;;;5.84;74.10;100143.69;10477401;28;20415;-78
2023/01/13 23:18:19;;;;;;;9.25;2.25;;;;;;;5.99;74.17;100157.81;10477052;28;20111;-77
2023/01/13 23:23:23;;;;;;;6.10;2.50;;;;;;;5.59;75.46;100159.53;10478339;28;20124;-77
2023/01/13 23:28:26;;;;;;;8.80;2.70;;;;;;;5.69;75.74;100176.63;10477998;28;20068;-77
2023/01/13 23:33:30;;;;;;;6.55;1.40;;;;;;;5.72;75.22;100177.28;10475391;28;20075;-77
2023/01/13 23:38:33;;;;;;;10.10;2.78;;;;;;;5.56;76.08;100186.38;10472359;28;20036;-78
2023/01/13 23:43:36;;;;;;;8.93;2.42;;;;;;;5.79;75.36;100172.44;10482598;28;20068;-78
2023/01/13 23:48:40;;;;;;;7.70;2.53;;;;;;;5.60;75.57;100178.09;10476616;28;20460;-77
2023/01/13 23:53:45;;;;;;;5.05;1.73;;;;;;;5.44;76.64;100183.53;10469220;28;20044;-77
2023/01/13 23:58:49;;;;;;;6.93;1.88;;;;;;;5.57;76.39;100196.94;10474893;28;20060;-77
